Time;durP1;ratioP1;P1;durP2;ratioP2;P2;SDS_P1;SDS_P2;PMS_P1;PMS_P2;Temp;Humidity;BMP_temperature;BMP_pressure;BME280_temperature;BME280_humidity;BME280_pressure;Samples;Min_cycle;Max_cycle;Signal;HPM_P1;HPM_P2
2023/03/15 00:01:02;;;;;;;2.35;0.90;;;;;;;;;;5005913;28;20050;-79
2023/03/15 00:03:28;;;;;;;2.88;1.08;;;;;;;;;;5013341;28;20027;-80
2023/03/15 00:05:54;;;;;;;1.85;0.90;;;;;;;;;;5002887;28;20519;-80
2023/03/15 00:08:20;;;;;;;2.17;0.80;;;;;;;;;;5004436;28;20120;-80
2023/03/15 00:10:47;;;;;;;2.53;0.90;;;;;;;;;;5007004;28;20065;-80
2023/03/15 00:13:14;;;;;;;2.92;0.98;;;;;;;;;;5015625;28;20015;-79
2023/03/15 00:15:47;;;;;;;2.05;0.80;;;;;;;;;;5013659;28;20022;-80
2023/03/15 00:18:14;;;;;;;2.65;0.85;;;;;;;;;;5023596;28;20030;-79
2023/03/15 00:20:40;;;;;;;3.53;1.05;;;;;;;;;;5023947;28;20034;-80
2023/03/15 00:23:06;;;;;;;2.00;0.60;;;;;;;;;;5023599;28;20088;-79
2023/03/15 00:25:32;;;;;;;2.65;0.90;;;;;;;;;;5012851;28;20035;-78
2023/03/15 00:27:58;;;;;;;2.83;1.20;;;;;;;;;;5002227;28;20517;-79
2023/03/15 00:30:24;;;;;;;3.13;0.85;;;;;;;;;;5005145;28;20027;-80
2023/03/15 00:32:55;;;;;;;2.00;0.70;;;;;;;;;;5016765;28;20418;-80
2023/03/15 00:35:22;;;;;;;3.97;1.05;;;;;;;;;;5016098;28;20097;-79
2023/03/15 00:37:49;;;;;;;3.40;0.90;;;;;;;;;;5004089;28;20054;-80
2023/03/15 00:40:15;;;;;;;3.53;0.98;;;;;;;;;;5002325;28;20033;-80
2023/03/15 00:42:48;;;;;;;2.05;0.77;;;;;;;;;;5002500;28;20030;-79
2023/03/15 00:45:14;;;;;;;4.45;1.00;;;;;;;;;;5004897;28;20018;-79
2023/03/15 00:47:40;;;;;;;3.00;1.02;;;;;;;;;;5003157;28;20049;-80
2023/03/15 00:50:06;;;;;;;2.85;1.00;;;;;;;;;;5005942;28;20057;-80
2023/03/15 00:52:36;;;;;;;2.05;0.90;;;;;;;;;;5022052;28;20069;-80
2023/03/15 00:55:02;;;;;;;3.15;1.00;;;;;;;;;;5003893;28;20137;-81
2023/03/15 00:57:28;;;;;;;2.63;1.15;;;;;;;;;;5005642;28;20080;-81
2023/03/15 00:59:54;;;;;;;3.70;1.58;;;;;;;;;;5008633;28;20046;-80
2023/03/15 01:02:21;;;;;;;3.55;1.50;;;;;;;;;;5006504;28;20034;-81
2023/03/15 01:04:50;;;;;;;3.22;1.42;;;;;;;;;;5008842;28;20021;-80
2023/03/15 01:07:16;;;;;;;3.28;1.30;;;;;;;;;;5025223;28;20018;-81
2023/03/15 01:09:43;;;;;;;3.33;1.50;;;;;;;;;;5025452;28;20040;-81
2023/03/15 01:12:09;;;;;;;3.30;1.27;;;;;;;;;;5022440;28;21341;-79
2023/03/15 01:14:37;;;;;;;3.25;1.40;;;;;;;;;;5017117;28;20045;-81
2023/03/15 01:17:03;;;;;;;3.05;1.38;;;;;;;;;;5006732;28;20120;-80
2023/03/15 01:19:29;;;;;;;3.08;1.30;;;;;;;;;;5004740;28;20034;-80
2023/03/15 01:21:55;;;;;;;5.00;1.45;;;;;;;;;;5004942;28;20026;-80
2023/03/15 01:24:21;;;;;;;4.75;1.70;;;;;;;;;;5005166;28;20045;-80
2023/03/15 01:26:47;;;;;;;4.15;1.70;;;;;;;;;;5003412;28;20034;-80
2023/03/15 01:29:16;;;;;;;4.65;1.70;;;;;;;;;;5005889;28;20061;-80
2023/03/15 01:31:42;;;;;;;4.65;1.65;;;;;;;;;;5007810;28;20030;-79
2023/03/15 01:34:08;;;;;;;3.55;1.63;;;;;;;;;;5025726;28;20040;-79
2023/03/15 01:36:34;;;;;;;4.50;1.70;;;;;;;;;;5022519;28;20486;-81
2023/03/15 01:39:00;;;;;;;4.43;1.60;;;;;;;;;;5008228;28;20089;-79
2023/03/15 01:41:26;;;;;;;5.85;1.60;;;;;;;;;;5024554;28;20034;-80
2023/03/15 01:43:53;;;;;;;3.85;1.77;;;;;;;;;;5013122;28;20041;-80
2023/03/15 01:46:22;;;;;;;4.25;1.80;;;;;;;;;;5014369;28;20041;-80
2023/03/15 01:48:54;;;;;;;4.63;1.92;;;;;;;;;;5006840;28;20026;-80
2023/03/15 01:51:23;;;;;;;4.82;1.70;;;;;;;;;;5011296;28;20026;-81
2023/03/15 01:53:55;;;;;;;4.40;1.92;;;;;;;;;;5013227;28;20559;-80
2023/03/15 01:56:22;;;;;;;4.40;1.85;;;;;;;;;;5006557;28;20026;-80
2023/03/15 01:58:49;;;;;;;4.10;2.00;;;;;;;;;;5001697;28;20052;-80
2023/03/15 02:01:15;;;;;;;4.85;2.10;;;;;;;;;;5007821;28;20022;-81
2023/03/15 02:03:45;;;;;;;4.60;2.00;;;;;;;;;;5016750;28;20412;-80
2023/03/15 02:06:16;;;;;;;4.45;1.70;;;;;;;;;;5023715;28;20048;-80
2023/03/15 02:08:45;;;;;;;4.72;2.00;;;;;;;;;;5025334;28;20080;-80
2023/03/15 02:11:11;;;;;;;4.35;1.80;;;;;;;;;;5010039;28;20042;-80
2023/03/15 02:13:37;;;;;;;4.50;2.28;;;;;;;;;;5017917;28;20017;-80
2023/03/15 02:16:05;;;;;;;3.80;1.98;;;;;;;;;;5009627;28;20026;-81
2023/03/15 02:18:34;;;;;;;4.50;2.10;;;;;;;;;;5014778;28;20033;-80
2023/03/15 02:21:19;;;;;;;5.13;2.03;;;;;;;;;;5025398;28;20018;-80
2023/03/15 02:23:47;;;;;;;4.25;1.80;;;;;;;;;;5016737;28;20026;-80
2023/03/15 02:26:13;;;;;;;4.22;1.88;;;;;;;;;;5021307;28;20037;-81
2023/03/15 02:28:40;;;;;;;4.88;2.15;;;;;;;;;;5005686;28;20053;-80
2023/03/15 02:31:06;;;;;;;7.80;2.33;;;;;;;;;;5006450;28;20054;-81
2023/03/15 02:33:36;;;;;;;5.22;2.28;;;;;;;;;;5017421;28;20125;-80
2023/03/15 02:36:11;;;;;;;4.72;2.13;;;;;;;;;;5023432;28;20075;-80
2023/03/15 02:38:37;;;;;;;5.03;2.20;;;;;;;;;;5006023;28;20041;-80
2023/03/15 02:41:03;;;;;;;6.05;2.33;;;;;;;;;;5011861;28;20037;-80
2023/03/15 02:43:30;;;;;;;5.45;2.70;;;;;;;;;;5015793;28;20041;-80
2023/03/15 02:45:57;;;;;;;5.22;2.40;;;;;;;;;;5005116;28;20033;-80
2023/03/15 02:48:23;;;;;;;4.68;2.30;;;;;;;;;;5014180;28;20033;-80
2023/03/15 02:50:49;;;;;;;5.07;2.50;;;;;;;;;;5006868;28;20035;-80
2023/03/15 02:53:15;;;;;;;5.32;2.00;;;;;;;;;;5015335;28;20018;-80
2023/03/15 02:55:41;;;;;;;6.03;2.50;;;;;;;;;;5011430;28;20045;-80
2023/03/15 02:58:07;;;;;;;5.22;2.10;;;;;;;;;;5004872;28;20093;-80
2023/03/15 03:00:33;;;;;;;4.38;2.33;;;;;;;;;;5017666;28;20125;-80
2023/03/15 03:02:59;;;;;;;5.85;2.28;;;;;;;;;;5015503;28;20090;-80
2023/03/15 03:05:25;;;;;;;5.10;2.35;;;;;;;;;;5021794;28;20034;-79
2023/03/15 03:07:51;;;;;;;4.63;2.05;;;;;;;;;;5003465;28;20128;-80
2023/03/15 03:10:18;;;;;;;4.97;2.35;;;;;;;;;;5010517;28;20033;-80
2023/03/15 03:12:45;;;;;;;5.35;2.50;;;;;;;;;;5017741;28;20023;-80
2023/03/15 03:15:11;;;;;;;4.45;1.90;;;;;;;;;;5010383;28;20025;-80
2023/03/15 03:17:37;;;;;;;4.72;2.13;;;;;;;;;;5015962;28;20042;-79
2023/03/15 03:20:08;;;;;;;5.55;2.55;;;;;;;;;;5020328;28;20065;-81
2023/03/15 03:22:35;;;;;;;4.75;2.10;;;;;;;;;;5007218;28;20041;-81
2023/03/15 03:25:01;;;;;;;5.50;2.20;;;;;;;;;;5018050;28;20459;-80
2023/03/15 03:27:27;;;;;;;4.93;2.17;;;;;;;;;;5005595;28;20498;-80
2023/03/15 03:29:53;;;;;;;5.63;2.38;;;;;;;;;;5018618;28;20136;-81
2023/03/15 03:32:19;;;;;;;4.68;2.30;;;;;;;;;;5004015;28;20026;-81
2023/03/15 03:34:47;;;;;;;5.07;2.10;;;;;;;;;;5010541;28;20486;-80
2023/03/15 03:37:16;;;;;;;4.57;2.15;;;;;;;;;;5005006;28;20022;-80
2023/03/15 03:39:42;;;;;;;4.70;1.80;;;;;;;;;;5016021;28;20033;-80
2023/03/15 03:42:09;;;;;;;4.13;1.73;;;;;;;;;;5005893;28;20530;-80
2023/03/15 03:44:35;;;;;;;3.97;1.80;;;;;;;;;;5002961;28;20105;-80
2023/03/15 03:47:01;;;;;;;3.45;1.60;;;;;;;;;;5005607;28;20022;-80
2023/03/15 03:49:27;;;;;;;4.50;2.08;;;;;;;;;;5006642;28;20031;-80
2023/03/15 03:51:53;;;;;;;4.22;1.92;;;;;;;;;;5014838;28;20129;-80
2023/03/15 03:54:23;;;;;;;5.28;1.80;;;;;;;;;;5007735;28;20050;-80
2023/03/15 03:56:49;;;;;;;7.07;1.80;;;;;;;;;;5004516;28;20094;-80
2023/03/15 03:59:15;;;;;;;3.88;1.67;;;;;;;;;;5005830;28;20101;-80
2023/03/15 04:01:41;;;;;;;4.50;1.80;;;;;;;;;;5004851;28;20116;-80
2023/03/15 04:04:07;;;;;;;5.18;1.80;;;;;;;;;;5008154;28;20050;-80
2023/03/15 04:06:34;;;;;;;4.60;1.70;;;;;;;;;;5003600;28;20542;-79
2023/03/15 04:09:01;;;;;;;4.40;1.23;;;;;;;;;;5003940;28;20130;-79
2023/03/15 04:11:27;;;;;;;3.95;1.25;;;;;;;;;;5002949;28;20556;-81
2023/03/15 04:13:54;;;;;;;4.18;1.50;;;;;;;;;;5003197;28;20022;-80
2023/03/15 04:16:20;;;;;;;4.85;1.35;;;;;;;;;;5004921;28;20034;-79
2023/03/15 04:18:46;;;;;;;4.75;1.70;;;;;;;;;;5012103;28;20034;-80
2023/03/15 04:21:12;;;;;;;4.43;1.20;;;;;;;;;;5007558;28;20109;-79
2023/03/15 04:23:38;;;;;;;4.00;1.23;;;;;;;;;;5003554;28;20037;-80
2023/03/15 04:26:04;;;;;;;6.10;1.33;;;;;;;;;;5016406;28;20037;-81
2023/03/15 04:28:31;;;;;;;7.18;1.35;;;;;;;;;;5002692;28;20085;-79
2023/03/15 04:30:57;;;;;;;5.15;1.40;;;;;;;;;;5006139;28;20042;-79
2023/03/15 04:33:27;;;;;;;4.15;1.13;;;;;;;;;;5019806;28;20026;-79
2023/03/15 04:35:53;;;;;;;3.15;1.25;;;;;;;;;;5023075;28;20077;-79
2023/03/15 04:38:25;;;;;;;3.80;1.20;;;;;;;;;;5024943;28;20029;-79
2023/03/15 04:40:52;;;;;;;3.97;1.10;;;;;;;;;;5010712;28;20297;-79
2023/03/15 04:43:18;;;;;;;4.68;1.17;;;;;;;;;;5016568;28;20602;-79
2023/03/15 04:45:44;;;;;;;2.78;0.88;;;;;;;;;;5009059;28;20021;-79
2023/03/15 04:48:10;;;;;;;4.72;1.25;;;;;;;;;;5012627;28;20038;-80
2023/03/15 04:50:36;;;;;;;4.20;1.42;;;;;;;;;;5024686;28;20038;-80
2023/03/15 04:53:02;;;;;;;4.57;1.35;;;;;;;;;;5036324;28;20068;-81
2023/03/15 04:55:28;;;;;;;4.68;1.15;;;;;;;;;;5020022;28;20074;-79
2023/03/15 04:57:55;;;;;;;3.22;1.00;;;;;;;;;;5024724;28;20036;-79
2023/03/15 05:00:21;;;;;;;2.10;0.77;;;;;;;;;;5015008;28;20533;-80
2023/03/15 05:02:53;;;;;;;3.88;1.23;;;;;;;;;;5016767;28;20029;-80
2023/03/15 05:05:20;;;;;;;4.33;1.40;;;;;;;;;;5011190;28;20051;-80
2023/03/15 05:07:46;;;;;;;3.55;1.10;;;;;;;;;;5018165;28;20034;-80
2023/03/15 05:10:12;;;;;;;3.28;1.08;;;;;;;;;;5010534;28;20061;-80
2023/03/15 05:12:38;;;;;;;3.33;1.23;;;;;;;;;;5019306;28;20101;-80
2023/03/15 05:15:04;;;;;;;4.97;1.30;;;;;;;;;;5016455;28;20060;-80
2023/03/15 05:17:32;;;;;;;4.45;1.20;;;;;;;;;;5015810;28;20486;-80
2023/03/15 05:20:00;;;;;;;5.88;1.60;;;;;;;;;;5003777;28;20018;-79
2023/03/15 05:22:26;;;;;;;3.50;1.00;;;;;;;;;;5002165;28;20027;-79
2023/03/15 05:24:52;;;;;;;3.03;1.17;;;;;;;;;;5013621;28;20084;-79
2023/03/15 05:27:19;;;;;;;5.50;0.93;;;;;;;;;;5015788;28;20045;-79
2023/03/15 05:29:45;;;;;;;5.00;1.10;;;;;;;;;;5005121;28;20018;-79
2023/03/15 05:32:11;;;;;;;4.88;1.02;;;;;;;;;;5013229;28;20068;-80
2023/03/15 05:34:37;;;;;;;3.53;1.17;;;;;;;;;;5003414;28;20018;-80
2023/03/15 05:37:04;;;;;;;7.13;1.15;;;;;;;;;;5005040;28;20113;-79
2023/03/15 05:39:33;;;;;;;3.45;0.98;;;;;;;;;;5015919;28;20048;-79
2023/03/15 05:42:00;;;;;;;4.18;1.02;;;;;;;;;;5004241;28;20029;-80
2023/03/15 05:44:26;;;;;;;3.92;1.13;;;;;;;;;;5002761;28;20030;-79
2023/03/15 05:46:52;;;;;;;4.88;1.20;;;;;;;;;;4999388;28;20398;-79
2023/03/15 05:49:18;;;;;;;3.75;1.00;;;;;;;;;;5004757;28;20061;-79
2023/03/15 05:51:44;;;;;;;4.53;1.40;;;;;;;;;;5009693;28;20022;-79
2023/03/15 05:54:10;;;;;;;2.65;0.90;;;;;;;;;;5008213;28;20026;-80
2023/03/15 05:56:36;;;;;;;3.83;1.00;;;;;;;;;;5011437;28;20496;-79
2023/03/15 05:59:03;;;;;;;4.72;1.30;;;;;;;;;;5007108;28;20050;-78
2023/03/15 06:01:29;;;;;;;4.13;1.02;;;;;;;;;;5009678;28;20041;-80
2023/03/15 06:03:56;;;;;;;3.55;1.10;;;;;;;;;;4997949;28;20494;-80
2023/03/15 06:06:22;;;;;;;4.78;1.10;;;;;;;;;;4999223;28;20084;-78
2023/03/15 06:08:48;;;;;;;4.53;0.95;;;;;;;;;;4998136;28;20026;-79
2023/03/15 06:11:14;;;;;;;6.80;1.30;;;;;;;;;;4997393;28;20093;-79
2023/03/15 06:13:40;;;;;;;4.00;1.17;;;;;;;;;;5012874;28;20083;-81
2023/03/15 06:16:06;;;;;;;4.82;1.10;;;;;;;;;;5024093;28;20490;-80
2023/03/15 06:18:32;;;;;;;4.63;1.30;;;;;;;;;;4999651;28;20121;-80
2023/03/15 06:20:59;;;;;;;4.70;1.23;;;;;;;;;;5009454;28;20069;-79
2023/03/15 06:23:25;;;;;;;6.07;1.30;;;;;;;;;;5016067;28;20026;-80
2023/03/15 06:25:51;;;;;;;6.18;1.38;;;;;;;;;;5012286;28;20109;-81
2023/03/15 06:28:17;;;;;;;4.20;0.82;;;;;;;;;;5016419;28;20080;-80
2023/03/15 06:30:43;;;;;;;2.25;0.80;;;;;;;;;;5017718;28;20026;-79
2023/03/15 06:33:09;;;;;;;5.20;1.00;;;;;;;;;;5017641;28;20033;-79
2023/03/15 06:35:35;;;;;;;3.47;1.02;;;;;;;;;;5008371;28;20026;-79
2023/03/15 06:38:01;;;;;;;4.78;0.80;;;;;;;;;;5018901;28;20022;-79
2023/03/15 06:40:27;;;;;;;6.18;1.40;;;;;;;;;;5014191;28;20037;-80
2023/03/15 06:42:53;;;;;;;4.85;0.85;;;;;;;;;;5013706;28;20030;-79
2023/03/15 06:45:19;;;;;;;2.60;0.88;;;;;;;;;;5017666;28;20022;-78
2023/03/15 06:47:45;;;;;;;3.67;1.08;;;;;;;;;;5009410;28;20030;-78
2023/03/15 06:50:11;;;;;;;4.57;0.82;;;;;;;;;;5011724;28;20032;-79
2023/03/15 06:52:38;;;;;;;4.22;1.42;;;;;;;;;;5003207;28;20022;-79
2023/03/15 06:55:04;;;;;;;2.78;0.93;;;;;;;;;;5005376;28;20026;-80
2023/03/15 06:57:30;;;;;;;2.72;0.85;;;;;;;;;;5004741;28;20395;-79
2023/03/15 06:59:56;;;;;;;7.70;1.33;;;;;;;;;;4997919;28;20508;-81
2023/03/15 07:02:22;;;;;;;2.40;0.70;;;;;;;;;;4996236;28;20522;-80
2023/03/15 07:04:48;;;;;;;6.95;1.35;;;;;;;;;;4996043;28;20537;-78
2023/03/15 07:07:15;;;;;;;2.85;0.82;;;;;;;;;;4996056;28;20027;-80
2023/03/15 07:09:41;;;;;;;2.63;0.80;;;;;;;;;;5002534;28;20052;-79
2023/03/15 07:12:07;;;;;;;2.58;0.90;;;;;;;;;;5016089;28;20033;-80
2023/03/15 07:14:34;;;;;;;2.47;0.80;;;;;;;;;;5016965;28;20580;-81
2023/03/15 07:17:00;;;;;;;2.67;0.70;;;;;;;;;;5012506;28;20101;-80
2023/03/15 07:19:26;;;;;;;4.75;1.20;;;;;;;;;;4997606;28;20047;-78
2023/03/15 07:21:52;;;;;;;3.50;0.80;;;;;;;;;;4996184;28;20034;-79
2023/03/15 07:24:18;;;;;;;3.53;0.68;;;;;;;;;;4995675;28;20498;-79
2023/03/15 07:26:44;;;;;;;3.25;1.05;;;;;;;;;;5002460;28;20029;-78
2023/03/15 07:29:10;;;;;;;4.88;0.98;;;;;;;;;;5015255;28;20030;-79
2023/03/15 07:31:36;;;;;;;2.80;0.90;;;;;;;;;;5014492;28;20498;-79
2023/03/15 07:34:02;;;;;;;2.90;0.80;;;;;;;;;;5016700;28;20022;-77
2023/03/15 07:36:28;;;;;;;3.03;0.90;;;;;;;;;;5015133;28;20018;-80
2023/03/15 07:38:54;;;;;;;2.13;0.77;;;;;;;;;;5016509;28;20022;-79
2023/03/15 07:41:20;;;;;;;4.45;1.17;;;;;;;;;;5014069;28;20030;-80
2023/03/15 07:43:46;;;;;;;3.72;1.00;;;;;;;;;;5010991;28;20073;-78
2023/03/15 07:46:12;;;;;;;6.00;1.15;;;;;;;;;;4993962;28;20437;-79
2023/03/15 07:48:38;;;;;;;5.03;1.05;;;;;;;;;;4996088;28;20479;-79
2023/03/15 07:51:04;;;;;;;2.92;0.88;;;;;;;;;;5000479;28;20028;-81
2023/03/15 07:53:30;;;;;;;2.03;1.20;;;;;;;;;;5004807;28;20033;-80
2023/03/15 07:55:56;;;;;;;3.75;0.80;;;;;;;;;;4995632;28;20026;-79
2023/03/15 07:58:22;;;;;;;5.65;1.00;;;;;;;;;;5011776;28;20042;-79
2023/03/15 08:00:48;;;;;;;4.25;0.90;;;;;;;;;;4996043;28;20438;-79
2023/03/15 08:03:14;;;;;;;4.97;0.98;;;;;;;;;;4999559;28;20030;-79
2023/03/15 08:05:40;;;;;;;2.30;0.77;;;;;;;;;;5001495;28;20034;-80
2023/03/15 08:08:06;;;;;;;3.58;0.95;;;;;;;;;;5013596;28;20057;-80
2023/03/15 08:10:33;;;;;;;9.05;1.08;;;;;;;;;;5014434;28;20022;-79
2023/03/15 08:12:59;;;;;;;3.35;1.10;;;;;;;;;;5010476;28;20038;-80
2023/03/15 08:15:25;;;;;;;4.78;1.00;;;;;;;;;;4997640;28;20026;-79
2023/03/15 08:17:51;;;;;;;3.78;0.80;;;;;;;;;;4995111;28;20034;-79
2023/03/15 08:20:17;;;;;;;4.78;1.13;;;;;;;;;;4994901;28;20077;-79
2023/03/15 08:22:43;;;;;;;5.07;1.10;;;;;;;;;;5006633;28;20480;-79
2023/03/15 08:25:10;;;;;;;3.47;1.13;;;;;;;;;;5014366;28;20041;-80
2023/03/15 08:27:37;;;;;;;7.50;1.75;;;;;;;;;;5016055;28;20030;-79
2023/03/15 08:30:04;;;;;;;3.33;1.08;;;;;;;;;;5013432;28;20057;-80
2023/03/15 08:32:31;;;;;;;5.50;1.30;;;;;;;;;;5014948;28;20022;-79
2023/03/15 08:34:57;;;;;;;4.93;1.38;;;;;;;;;;5015175;28;20025;-79
2023/03/15 08:37:23;;;;;;;4.78;1.50;;;;;;;;;;4998031;28;20023;-80
2023/03/15 08:39:56;;;;;;;5.03;1.30;;;;;;;;;;4996342;28;20046;-78
2023/03/15 08:42:22;;;;;;;3.92;1.60;;;;;;;;;;4995674;28;20034;-78
2023/03/15 08:44:48;;;;;;;4.05;1.45;;;;;;;;;;5007660;28;20040;-80
2023/03/15 08:47:14;;;;;;;3.17;1.25;;;;;;;;;;5001136;28;20031;-80
2023/03/15 08:49:40;;;;;;;6.05;1.40;;;;;;;;;;5005532;28;20034;-81
2023/03/15 08:52:06;;;;;;;8.32;1.63;;;;;;;;;;5015253;28;20037;-79
2023/03/15 08:54:32;;;;;;;3.72;1.30;;;;;;;;;;5012830;28;20033;-78
2023/03/15 08:56:58;;;;;;;5.28;1.50;;;;;;;;;;5003949;28;20018;-80
2023/03/15 08:59:24;;;;;;;3.97;1.42;;;;;;;;;;5002740;28;20053;-79
2023/03/15 09:01:50;;;;;;;5.95;1.42;;;;;;;;;;5015733;28;20022;-80
2023/03/15 09:04:16;;;;;;;4.50;1.50;;;;;;;;;;5013529;28;20022;-78
2023/03/15 09:06:42;;;;;;;10.65;1.75;;;;;;;;;;5009817;28;20053;-79
2023/03/15 09:09:08;;;;;;;5.18;1.83;;;;;;;;;;4995306;28;20533;-80
2023/03/15 09:11:34;;;;;;;6.35;2.75;;;;;;;;;;4995749;28;20035;-80
2023/03/15 09:14:01;;;;;;;6.15;1.40;;;;;;;;;;5012182;28;20114;-79
2023/03/15 09:16:27;;;;;;;5.18;1.30;;;;;;;;;;4995844;28;20018;-79
2023/03/15 09:18:56;;;;;;;3.58;1.00;;;;;;;;;;4999433;28;20030;-80
2023/03/15 09:21:23;;;;;;;5.88;1.50;;;;;;;;;;5013249;28;20514;-79
2023/03/15 09:23:50;;;;;;;6.15;1.40;;;;;;;;;;5019016;28;20026;-79
2023/03/15 09:26:15;;;;;;;4.95;1.02;;;;;;;;;;5017949;28;20022;-78
2023/03/15 09:28:41;;;;;;;3.75;1.25;;;;;;;;;;4998993;28;20037;-79
2023/03/15 09:31:07;;;;;;;6.82;1.17;;;;;;;;;;5004089;28;20048;-80
2023/03/15 09:33:33;;;;;;;7.65;1.80;;;;;;;;;;4998897;28;20022;-80
2023/03/15 09:35:59;;;;;;;5.35;1.10;;;;;;;;;;4999818;28;20051;-79
2023/03/15 09:38:25;;;;;;;3.47;1.35;;;;;;;;;;5012889;28;20453;-79
2023/03/15 09:40:55;;;;;;;4.50;1.20;;;;;;;;;;5005594;28;20093;-80
2023/03/15 09:43:36;;;;;;;3.58;0.93;;;;;;;;;;5017110;28;20022;-79
2023/03/15 09:46:22;;;;;;;2.33;0.80;;;;;;;;;;5017138;28;20034;-79
2023/03/15 09:49:08;;;;;;;3.58;1.05;;;;;;;;;;4998126;28;20125;-82
2023/03/15 09:51:39;;;;;;;6.65;1.00;;;;;;;;;;5003957;28;20510;-80
2023/03/15 09:54:09;;;;;;;3.10;0.80;;;;;;;;;;4998558;28;20114;-80
2023/03/15 09:56:50;;;;;;;2.58;1.20;;;;;;;;;;4999280;28;20076;-81
2023/03/15 09:59:21;;;;;;;2.83;0.82;;;;;;;;;;5011614;28;20046;-80
2023/03/15 10:01:48;;;;;;;6.93;1.00;;;;;;;;;;4997484;28;20030;-80
2023/03/15 10:04:22;;;;;;;3.72;0.82;;;;;;;;;;4998433;28;20022;-82
2023/03/15 10:06:53;;;;;;;3.15;0.90;;;;;;;;;;4999652;28;20029;-79
2023/03/15 10:09:21;;;;;;;5.45;0.98;;;;;;;;;;5005193;28;20022;-79
2023/03/15 10:11:47;;;;;;;4.18;1.10;;;;;;;;;;5005736;28;20026;-80
2023/03/15 10:14:23;;;;;;;2.50;0.80;;;;;;;;;;4999770;28;20018;-79
2023/03/15 10:16:50;;;;;;;3.30;1.17;;;;;;;;;;4997445;28;20482;-79
2023/03/15 10:19:35;;;;;;;6.22;1.20;;;;;;;;;;4998160;28;20027;-80
2023/03/15 10:22:12;;;;;;;2.25;0.80;;;;;;;;;;5011282;28;20491;-79
2023/03/15 10:24:53;;;;;;;3.33;0.95;;;;;;;;;;5008029;28;20024;-79
2023/03/15 10:27:28;;;;;;;4.28;1.02;;;;;;;;;;5009697;28;20049;-79
2023/03/15 10:29:55;;;;;;;6.32;1.42;;;;;;;;;;5009375;28;20049;-78
2023/03/15 10:32:24;;;;;;;3.35;1.00;;;;;;;;;;5011948;28;20027;-80
2023/03/15 10:34:52;;;;;;;3.03;0.80;;;;;;;;;;5007522;28;20022;-80
2023/03/15 10:37:18;;;;;;;4.43;0.85;;;;;;;;;;5019409;28;20125;-80
2023/03/15 10:39:49;;;;;;;3.35;1.10;;;;;;;;;;5027715;28;20029;-80
2023/03/15 10:42:28;;;;;;;2.58;0.98;;;;;;;;;;5007494;28;20084;-80
2023/03/15 10:44:55;;;;;;;4.70;0.90;;;;;;;;;;4997553;28;20058;-80
2023/03/15 10:47:21;;;;;;;4.18;0.95;;;;;;;;;;5009985;28;20026;-79
2023/03/15 10:49:48;;;;;;;7.10;1.60;;;;;;;;;;5005829;28;20402;-78
2023/03/15 10:52:27;;;;;;;5.65;1.30;;;;;;;;;;4995977;28;20019;-78
2023/03/15 10:54:53;;;;;;;4.95;1.40;;;;;;;;;;5005669;28;20022;-79
2023/03/15 10:57:20;;;;;;;4.32;1.52;;;;;;;;;;5014215;28;20026;-80
2023/03/15 11:00:16;;;;;;;6.03;1.10;;;;;;;;;;5036446;28;20045;-79
2023/03/15 11:02:49;;;;;;;3.90;1.20;;;;;;;;;;5008465;28;20121;-82
2023/03/15 11:05:14;;;;;;;;;;;;;;;;;;4999150;28;20035;-81
2023/03/15 11:07:54;;;;;;;3.42;1.10;;;;;;;;;;5000074;28;19913;-84
2023/03/15 11:10:24;;;;;;;4.72;0.98;;;;;;;;;;5009563;28;20030;-82
2023/03/15 11:12:50;;;;;;;6.78;1.50;;;;;;;;;;5007959;28;20076;-80
2023/03/15 11:15:18;;;;;;;4.18;1.10;;;;;;;;;;5015980;28;20116;-83
2023/03/15 11:17:45;;;;;;;2.72;1.00;;;;;;;;;;4997437;28;20069;-79
2023/03/15 11:20:30;;;;;;;5.47;1.00;;;;;;;;;;5004878;28;20029;-80
2023/03/15 11:22:56;;;;;;;4.88;1.30;;;;;;;;;;5003357;28;20041;-82
2023/03/15 11:25:25;;;;;;;7.20;1.17;;;;;;;;;;5004955;28;20449;-80
2023/03/15 11:27:52;;;;;;;5.18;1.40;;;;;;;;;;4999696;28;20062;-80
2023/03/15 11:30:21;;;;;;;6.13;1.30;;;;;;;;;;5009211;28;20018;-80
2023/03/15 11:32:47;;;;;;;3.85;1.67;;;;;;;;;;5019298;28;20078;-80
2023/03/15 11:35:22;;;;;;;6.40;1.48;;;;;;;;;;5016753;28;20068;-81
2023/03/15 11:37:50;;;;;;;4.25;1.60;;;;;;;;;;5000352;28;20050;-80
2023/03/15 11:40:25;;;;;;;5.65;1.63;;;;;;;;;;5004146;28;20658;-81
2023/03/15 11:43:08;;;;;;;3.10;1.15;;;;;;;;;;5013916;28;20030;-80
2023/03/15 11:45:40;;;;;;;10.32;2.03;;;;;;;;;;5016538;28;20088;-81
2023/03/15 11:48:16;;;;;;;7.30;1.67;;;;;;;;;;5005815;28;20038;-82
2023/03/15 11:50:42;;;;;;;4.15;1.63;;;;;;;;;;5018047;28;20604;-82
2023/03/15 11:53:10;;;;;;;4.55;1.67;;;;;;;;;;5011129;28;20026;-82
2023/03/15 11:55:37;;;;;;;4.47;1.60;;;;;;;;;;5015963;28;20010;-81
2023/03/15 11:58:21;;;;;;;6.80;1.67;;;;;;;;;;5000525;28;20022;-82
2023/03/15 12:00:49;;;;;;;5.32;1.80;;;;;;;;;;4997804;28;21859;-82
2023/03/15 12:03:34;;;;;;;8.68;1.88;;;;;;;;;;5004344;28;20116;-81
2023/03/15 12:06:03;;;;;;;5.80;1.90;;;;;;;;;;4998858;28;20033;-80
2023/03/15 12:08:34;;;;;;;4.55;1.75;;;;;;;;;;5001196;28;20529;-80
2023/03/15 12:11:01;;;;;;;4.55;1.80;;;;;;;;;;5010030;28;20034;-80
2023/03/15 12:13:29;;;;;;;5.43;2.10;;;;;;;;;;5004192;28;20029;-82
2023/03/15 12:15:55;;;;;;;8.73;2.08;;;;;;;;;;5004993;28;20022;-80
2023/03/15 12:18:25;;;;;;;4.15;1.70;;;;;;;;;;5011424;28;20088;-79
2023/03/15 12:21:06;;;;;;;5.05;1.77;;;;;;;;;;5004851;28;20041;-81
2023/03/15 12:23:35;;;;;;;6.68;2.78;;;;;;;;;;5013478;28;20037;-80
2023/03/15 12:26:01;;;;;;;4.10;1.80;;;;;;;;;;5022787;28;20037;-80
2023/03/15 12:28:44;;;;;;;5.95;1.75;;;;;;;;;;5014481;28;20050;-81
2023/03/15 12:31:14;;;;;;;5.75;2.05;;;;;;;;;;4999223;28;20115;-82
2023/03/15 12:33:48;;;;;;;5.47;1.90;;;;;;;;;;5024846;28;20041;-79
2023/03/15 12:36:23;;;;;;;5.90;1.80;;;;;;;;;;4995562;28;20446;-81
2023/03/15 12:38:54;;;;;;;5.47;2.55;;;;;;;;;;5010451;28;20025;-80
2023/03/15 12:41:34;;;;;;;5.60;2.30;;;;;;;;;;5021202;28;20533;-79
2023/03/15 12:44:20;;;;;;;4.70;1.98;;;;;;;;;;5011478;28;20037;-80
2023/03/15 12:46:46;;;;;;;5.05;1.95;;;;;;;;;;4999260;28;20082;-80
2023/03/15 12:49:12;;;;;;;4.82;2.25;;;;;;;;;;5011315;28;20068;-79
2023/03/15 12:51:53;;;;;;;4.22;1.75;;;;;;;;;;5017693;28;20034;-78
2023/03/15 12:54:20;;;;;;;5.25;2.00;;;;;;;;;;5018767;28;20033;-80
2023/03/15 12:56:57;;;;;;;5.80;2.10;;;;;;;;;;5020565;28;20105;-80
2023/03/15 12:59:39;;;;;;;4.70;1.90;;;;;;;;;;5016369;28;20053;-80
2023/03/15 13:02:16;;;;;;;4.88;2.05;;;;;;;;;;5022850;28;20104;-80
2023/03/15 13:04:42;;;;;;;4.28;2.15;;;;;;;;;;5002564;28;20033;-80
2023/03/15 13:07:28;;;;;;;7.10;2.03;;;;;;;;;;5001920;28;20098;-81
2023/03/15 13:09:57;;;;;;;5.03;1.92;;;;;;;;;;5014621;28;20069;-80
2023/03/15 13:12:26;;;;;;;6.95;2.08;;;;;;;;;;5020599;28;20033;-80
2023/03/15 13:14:52;;;;;;;5.90;1.70;;;;;;;;;;5015143;28;20358;-79
2023/03/15 13:17:24;;;;;;;8.23;2.42;;;;;;;;;;5019121;28;20104;-81
2023/03/15 13:19:55;;;;;;;5.00;1.95;;;;;;;;;;5018401;28;20390;-80
2023/03/15 13:22:27;;;;;;;3.75;1.55;;;;;;;;;;5023224;28;20402;-79
2023/03/15 13:25:14;;;;;;;3.65;1.70;;;;;;;;;;5021641;28;20030;-81
2023/03/15 13:27:58;;;;;;;4.10;1.48;;;;;;;;;;5014221;28;20022;-79
2023/03/15 13:30:27;;;;;;;6.72;1.60;;;;;;;;;;5000445;28;20099;-80
2023/03/15 13:33:12;;;;;;;4.18;1.48;;;;;;;;;;5009292;28;20030;-80
2023/03/15 13:35:45;;;;;;;5.65;1.77;;;;;;;;;;5017834;28;20371;-80
2023/03/15 13:38:30;;;;;;;6.38;1.92;;;;;;;;;;4999628;28;20090;-80
2023/03/15 13:40:58;;;;;;;7.65;1.63;;;;;;;;;;5007830;28;20436;-79
2023/03/15 13:43:29;;;;;;;4.75;1.27;;;;;;;;;;5008027;28;20034;-81
2023/03/15 13:45:58;;;;;;;3.75;1.42;;;;;;;;;;5000740;28;20039;-81
2023/03/15 13:48:28;;;;;;;5.32;1.40;;;;;;;;;;5000636;28;20641;-82
2023/03/15 13:50:55;;;;;;;6.18;1.65;;;;;;;;;;4999005;28;20113;-80
2023/03/15 13:53:24;;;;;;;4.55;1.45;;;;;;;;;;5011859;28;20085;-81
2023/03/15 13:55:52;;;;;;;3.15;0.93;;;;;;;;;;5018692;28;20034;-79
2023/03/15 13:58:18;;;;;;;4.78;1.30;;;;;;;;;;5007672;28;20050;-81
2023/03/15 14:00:46;;;;;;;5.80;1.10;;;;;;;;;;4998071;28;20031;-81
2023/03/15 14:03:14;;;;;;;3.35;0.93;;;;;;;;;;5008405;28;20026;-79
2023/03/15 14:05:47;;;;;;;6.05;1.80;;;;;;;;;;5020398;28;20022;-80
2023/03/15 14:08:21;;;;;;;4.18;1.10;;;;;;;;;;5018378;28;20033;-79
2023/03/15 14:11:06;;;;;;;3.38;1.08;;;;;;;;;;5016915;28;20026;-79
2023/03/15 14:13:35;;;;;;;4.78;1.20;;;;;;;;;;5013676;28;20457;-80
2023/03/15 14:16:04;;;;;;;3.58;1.25;;;;;;;;;;5014682;28;20025;-79
2023/03/15 14:18:35;;;;;;;3.45;1.15;;;;;;;;;;5007945;28;20026;-81
2023/03/15 14:21:17;;;;;;;5.15;1.15;;;;;;;;;;5013529;28;20089;-81
2023/03/15 14:23:47;;;;;;;5.70;1.35;;;;;;;;;;5018765;28;20562;-81
2023/03/15 14:26:17;;;;;;;8.60;1.98;;;;;;;;;;5005498;28;20028;-81
2023/03/15 14:28:47;;;;;;;3.88;1.08;;;;;;;;;;4996546;28;20637;-80
2023/03/15 14:31:22;;;;;;;2.67;0.98;;;;;;;;;;5000482;28;20486;-78
2023/03/15 14:33:52;;;;;;;2.63;0.90;;;;;;;;;;5020942;28;20071;-79
2023/03/15 14:36:30;;;;;;;5.90;1.00;;;;;;;;;;5011781;28;20076;-79
2023/03/15 14:38:58;;;;;;;4.50;1.50;;;;;;;;;;5008177;28;20022;-78
2023/03/15 14:41:30;;;;;;;3.97;1.10;;;;;;;;;;5001163;28;20498;-78
2023/03/15 14:43:56;;;;;;;3.25;1.20;;;;;;;;;;5000233;28;20053;-80
2023/03/15 14:46:22;;;;;;;4.07;0.90;;;;;;;;;;5016508;28;20018;-80
2023/03/15 14:48:51;;;;;;;2.53;0.90;;;;;;;;;;5007491;28;20030;-79
2023/03/15 14:51:18;;;;;;;6.82;1.02;;;;;;;;;;5006855;28;20435;-79